createdAt,value
2019-03-25T00:01:35.953Z,38.00
2019-03-25T00:04:04.661Z,38.00
2019-03-25T00:06:33.413Z,37.80
2019-03-25T00:09:05.544Z,37.90
2019-03-25T00:11:33.180Z,38.30
2019-03-25T00:14:01.914Z,38.60
2019-03-25T00:16:30.646Z,38.70
2019-03-25T00:18:59.318Z,38.60
2019-03-25T00:21:28.104Z,38.60
2019-03-25T00:23:56.780Z,38.70
2019-03-25T00:26:25.472Z,38.70
2019-03-25T00:28:54.142Z,38.60
2019-03-25T00:31:22.960Z,38.70
2019-03-25T00:33:51.663Z,38.60
2019-03-25T00:36:20.351Z,38.60
2019-03-25T00:38:49.111Z,38.70
2019-03-25T00:41:17.812Z,38.60
2019-03-25T00:43:46.486Z,39.00
2019-03-25T00:46:15.186Z,39.30
2019-03-25T00:48:43.857Z,38.80
2019-03-25T00:51:12.536Z,39.40
2019-03-25T00:53:41.208Z,39.50
2019-03-25T00:56:09.976Z,39.40
2019-03-25T00:58:38.858Z,39.20
2019-03-25T01:01:07.895Z,39.70
2019-03-25T01:03:36.578Z,39.70
2019-03-25T01:06:05.274Z,39.90
2019-03-25T01:08:33.941Z,39.90
2019-03-25T01:11:02.650Z,39.80
2019-03-25T01:13:31.391Z,39.80
2019-03-25T01:16:02.271Z,39.60
2019-03-25T01:18:30.999Z,39.30
2019-03-25T01:20:59.661Z,39.10
2019-03-25T01:23:28.358Z,39.10
2019-03-25T01:25:57.585Z,39.10
2019-03-25T01:28:26.261Z,39.00
2019-03-25T01:30:54.963Z,38.60
2019-03-25T01:33:23.716Z,38.70
2019-03-25T01:35:52.419Z,38.70
2019-03-25T01:38:21.075Z,38.80
2019-03-25T01:40:49.941Z,38.70
2019-03-25T01:43:18.647Z,38.60
2019-03-25T01:45:47.379Z,38.50
2019-03-25T01:48:16.127Z,38.50
2019-03-25T01:50:44.833Z,38.90
2019-03-25T01:53:13.510Z,38.60
2019-03-25T01:55:42.214Z,38.70
2019-03-25T01:58:10.947Z,38.80
2019-03-25T02:00:39.820Z,38.60
2019-03-25T02:03:08.522Z,38.90
2019-03-25T02:05:37.308Z,39.20
2019-03-25T02:08:06.001Z,38.80
2019-03-25T02:10:34.716Z,39.10
2019-03-25T02:13:03.421Z,39.00
2019-03-25T02:15:32.088Z,39.10
2019-03-25T02:18:00.817Z,39.70
2019-03-25T02:20:29.704Z,39.70
2019-03-25T02:22:58.531Z,40.10
2019-03-25T02:25:27.351Z,40.30
2019-03-25T02:27:56.025Z,41.40
2019-03-25T02:30:24.712Z,41.50
2019-03-25T02:32:53.451Z,40.70
2019-03-25T02:35:22.125Z,41.80
2019-03-25T02:37:50.840Z,42.00
2019-03-25T02:40:19.509Z,41.20
2019-03-25T02:42:49.439Z,42.20
2019-03-25T02:45:18.164Z,41.60
2019-03-25T02:47:46.853Z,42.60
2019-03-25T02:50:15.540Z,42.70
2019-03-25T02:52:44.268Z,42.80
2019-03-25T02:55:12.940Z,42.90
2019-03-25T02:57:41.660Z,42.80
2019-03-25T03:00:11.469Z,42.30
2019-03-25T03:02:40.214Z,42.10
2019-03-25T03:05:09.211Z,43.20
2019-03-25T03:07:37.888Z,43.50
2019-03-25T03:10:07.919Z,43.30
2019-03-25T03:12:36.614Z,42.70
2019-03-25T03:15:07.694Z,43.20
2019-03-25T03:17:36.455Z,42.50
2019-03-25T03:20:07.147Z,43.50
2019-03-25T03:22:35.919Z,43.60
2019-03-25T03:25:05.400Z,44.00
2019-03-25T03:27:34.394Z,44.10
2019-03-25T03:30:03.099Z,43.20
2019-03-25T03:32:31.835Z,44.30
2019-03-25T03:35:01.038Z,42.80
2019-03-25T03:37:29.880Z,43.70
2019-03-25T03:39:58.595Z,43.60
2019-03-25T03:42:27.328Z,44.50
2019-03-25T03:44:56.029Z,44.50
2019-03-25T03:47:24.689Z,44.50
2019-03-25T03:49:53.376Z,44.40
2019-03-25T03:52:22.085Z,43.90
2019-03-25T03:54:51.251Z,44.50
2019-03-25T03:57:20.149Z,44.80
2019-03-25T03:59:48.925Z,44.80
2019-03-25T04:02:17.590Z,44.30
2019-03-25T04:04:46.304Z,45.10
2019-03-25T04:07:14.968Z,45.10
2019-03-25T04:09:43.743Z,45.30
2019-03-25T04:12:12.485Z,45.60
2019-03-25T04:14:41.331Z,46.30
2019-03-25T04:17:10.017Z,47.60
2019-03-25T04:19:38.706Z,49.20
2019-03-25T04:22:07.416Z,50.60
2019-03-25T04:24:36.131Z,51.30
2019-03-25T04:27:04.860Z,51.40
2019-03-25T04:29:33.548Z,51.60
2019-03-25T04:32:05.940Z,52.00
2019-03-25T04:34:32.695Z,52.00
2019-03-25T04:37:01.591Z,52.20
2019-03-25T04:39:30.301Z,52.40
2019-03-25T04:41:59.246Z,52.30
2019-03-25T04:44:27.937Z,52.40
2019-03-25T04:46:56.622Z,53.00
2019-03-25T04:49:25.382Z,53.20
2019-03-25T04:51:54.087Z,53.80
2019-03-25T04:54:24.013Z,54.40
2019-03-25T04:56:52.724Z,54.50
2019-03-25T04:59:21.668Z,55.30
2019-03-25T05:01:50.566Z,55.10
2019-03-25T05:04:19.425Z,55.30
2019-03-25T05:06:48.128Z,55.30
2019-03-25T05:09:16.991Z,55.10
2019-03-25T05:11:45.680Z,54.90
2019-03-25T05:14:14.335Z,54.80
2019-03-25T05:16:43.024Z,54.80
2019-03-25T05:19:11.686Z,54.50
2019-03-25T05:21:40.420Z,54.40
2019-03-25T05:24:09.082Z,54.10
2019-03-25T05:26:37.791Z,53.90
2019-03-25T05:29:06.464Z,54.10
2019-03-25T05:31:35.293Z,54.10
2019-03-25T05:34:03.955Z,53.80
2019-03-25T05:36:32.729Z,54.00
2019-03-25T05:39:01.454Z,54.00
2019-03-25T05:41:30.124Z,53.70
2019-03-25T05:43:59.106Z,53.40
2019-03-25T05:46:27.791Z,53.70
2019-03-25T05:48:56.479Z,53.30
2019-03-25T05:51:25.165Z,53.40
2019-03-25T05:53:53.885Z,53.30
2019-03-25T05:56:22.595Z,53.50
2019-03-25T05:58:51.308Z,53.60
2019-03-25T06:01:20.558Z,53.80
2019-03-25T06:03:49.260Z,53.90
2019-03-25T06:06:18.172Z,54.00
2019-03-25T06:08:46.870Z,53.90
2019-03-25T06:11:15.578Z,54.00
2019-03-25T06:13:44.368Z,53.70
2019-03-25T06:16:13.110Z,53.20
2019-03-25T06:18:41.918Z,53.50
2019-03-25T06:21:10.599Z,53.00
2019-03-25T06:23:39.522Z,53.30
2019-03-25T06:26:08.195Z,53.60
2019-03-25T06:28:37.078Z,52.80
2019-03-25T06:31:05.977Z,53.20
2019-03-25T06:33:34.880Z,53.40
2019-03-25T06:36:03.556Z,53.80
2019-03-25T06:38:32.404Z,53.70
2019-03-25T06:41:01.258Z,53.70
2019-03-25T06:43:32.016Z,53.60
2019-03-25T06:46:00.532Z,53.80
2019-03-25T06:48:29.227Z,54.00
2019-03-25T06:50:59.676Z,54.10
2019-03-25T06:53:28.359Z,54.30
2019-03-25T06:55:57.055Z,54.60
2019-03-25T06:58:25.731Z,54.80
2019-03-25T07:00:54.466Z,54.90
2019-03-25T07:03:23.166Z,55.10
2019-03-25T07:05:51.870Z,54.90
2019-03-25T07:08:20.623Z,54.70
2019-03-25T07:10:49.608Z,54.80
2019-03-25T07:13:18.496Z,54.70
2019-03-25T07:15:47.182Z,54.60
2019-03-25T07:18:15.861Z,54.60
2019-03-25T07:20:44.552Z,54.50
2019-03-25T07:23:13.258Z,54.70
2019-03-25T07:25:41.979Z,54.40
2019-03-25T07:28:10.646Z,54.40
2019-03-25T07:30:39.458Z,54.40
2019-03-25T07:33:08.320Z,54.90
2019-03-25T07:35:37.034Z,53.90
2019-03-25T07:38:05.709Z,54.00
2019-03-25T07:40:34.716Z,53.70
2019-03-25T07:43:03.464Z,53.70
2019-03-25T07:45:32.429Z,53.70
2019-03-25T07:48:01.102Z,53.40
2019-03-25T07:50:29.806Z,53.50
2019-03-25T07:52:58.496Z,53.60
2019-03-25T07:55:27.219Z,53.20
2019-03-25T07:57:55.964Z,53.30
2019-03-25T08:00:24.655Z,53.10
2019-03-25T08:02:53.388Z,52.80
2019-03-25T08:05:22.094Z,52.90
2019-03-25T08:07:50.779Z,52.70
2019-03-25T08:10:22.657Z,52.40
2019-03-25T08:12:51.435Z,52.40
2019-03-25T08:15:20.153Z,52.10
2019-03-25T08:17:48.815Z,52.30
2019-03-25T08:20:17.511Z,51.60
2019-03-25T08:22:46.183Z,51.80
2019-03-25T08:25:15.166Z,51.90
2019-03-25T08:27:43.864Z,51.90
2019-03-25T08:30:13.176Z,51.80
2019-03-25T08:32:41.830Z,51.90
2019-03-25T08:35:10.935Z,52.20
2019-03-25T08:37:39.622Z,52.00
2019-03-25T08:40:09.793Z,52.20
2019-03-25T08:42:38.476Z,52.10
2019-03-25T08:45:07.255Z,52.10
2019-03-25T08:47:35.951Z,52.40
2019-03-25T08:50:07.306Z,52.50
2019-03-25T08:52:35.990Z,52.90
2019-03-25T08:55:06.609Z,54.30
2019-03-25T08:57:35.276Z,55.20
2019-03-25T09:00:11.108Z,56.20
2019-03-25T09:02:39.782Z,56.80
2019-03-25T09:05:09.471Z,57.60
2019-03-25T09:07:38.143Z,58.10
2019-03-25T09:10:08.719Z,58.30
2019-03-25T09:12:37.511Z,58.30
2019-03-25T09:15:09.157Z,58.50
2019-03-25T09:17:37.918Z,58.30
2019-03-25T09:20:11.698Z,58.00
2019-03-25T09:22:40.473Z,57.80
2019-03-25T09:25:09.674Z,57.20
2019-03-25T09:27:39.737Z,58.20
2019-03-25T09:30:10.940Z,57.80
2019-03-25T09:32:39.827Z,56.80
2019-03-25T09:35:09.091Z,56.20
2019-03-25T09:37:38.920Z,56.20
2019-03-25T09:40:09.718Z,56.40
2019-03-25T09:42:38.404Z,56.10
2019-03-25T09:45:12.084Z,55.70
2019-03-25T09:47:40.788Z,55.90
2019-03-25T09:50:11.476Z,56.20
2019-03-25T09:52:40.193Z,55.90
2019-03-25T09:55:09.319Z,55.90
2019-03-25T09:57:38.856Z,55.90
2019-03-25T10:00:10.064Z,55.30
2019-03-25T10:02:38.739Z,55.50
2019-03-25T10:05:08.365Z,55.50
2019-03-25T10:07:37.072Z,55.00
2019-03-25T10:10:07.587Z,55.10
2019-03-25T10:12:36.308Z,55.00
2019-03-25T10:15:07.970Z,55.00
2019-03-25T10:17:36.683Z,55.90
2019-03-25T10:20:08.902Z,56.50
2019-03-25T10:22:37.611Z,57.00
2019-03-25T10:25:08.043Z,57.60
2019-03-25T10:27:36.762Z,57.00
2019-03-25T10:30:14.783Z,57.00
2019-03-25T10:32:43.560Z,56.70
2019-03-25T10:35:12.386Z,55.70
2019-03-25T10:37:41.284Z,55.40
2019-03-25T10:40:10.910Z,55.70
2019-03-25T10:42:39.854Z,54.50
2019-03-25T10:45:09.642Z,54.40
2019-03-25T10:47:38.486Z,54.70
2019-03-25T10:50:08.099Z,55.60
2019-03-25T10:52:36.767Z,55.60
2019-03-25T10:55:07.824Z,55.90
2019-03-25T10:57:36.756Z,56.40
2019-03-25T11:00:15.166Z,55.90
2019-03-25T11:02:43.922Z,56.00
2019-03-25T11:05:12.704Z,55.20
2019-03-25T11:10:10.885Z,54.30
2019-03-25T11:12:39.592Z,53.50
2019-03-25T11:15:09.074Z,52.40
2019-03-25T11:17:38.148Z,51.10
2019-03-25T11:20:09.914Z,49.70
2019-03-25T11:22:38.651Z,48.80
2019-03-25T11:25:08.365Z,49.40
2019-03-25T11:27:37.038Z,49.70
2019-03-25T11:30:10.793Z,50.20
2019-03-25T11:32:39.607Z,51.20
2019-03-25T11:35:09.598Z,52.60
2019-03-25T11:37:38.365Z,53.50
2019-03-25T11:40:10.873Z,54.30
2019-03-25T11:42:39.582Z,54.20
2019-03-25T11:45:10.177Z,54.10
2019-03-25T11:47:38.878Z,53.70
2019-03-25T11:50:08.649Z,53.70
2019-03-25T11:52:37.483Z,53.20
2019-03-25T11:55:07.048Z,52.50
2019-03-25T11:57:35.747Z,52.90
2019-03-25T12:00:07.989Z,52.60
2019-03-25T12:02:36.859Z,52.00
2019-03-25T12:05:09.598Z,51.90
2019-03-25T12:07:38.511Z,52.30
2019-03-25T12:10:07.879Z,51.70
2019-03-25T12:12:36.578Z,50.70
2019-03-25T12:15:09.779Z,50.20
2019-03-25T12:17:38.418Z,50.10
2019-03-25T12:20:08.109Z,49.50
2019-03-25T12:22:36.847Z,47.40
2019-03-25T12:25:08.879Z,46.50
2019-03-25T12:27:37.583Z,46.20
2019-03-25T12:30:09.255Z,46.70
2019-03-25T12:32:37.973Z,48.80
2019-03-25T12:35:08.445Z,50.80
2019-03-25T12:37:37.127Z,51.10
2019-03-25T12:40:07.921Z,50.70
2019-03-25T12:42:39.425Z,50.50
2019-03-25T12:45:08.736Z,50.70
2019-03-25T12:47:37.450Z,51.10
2019-03-25T12:50:07.458Z,50.60
2019-03-25T12:52:36.114Z,50.50
2019-03-25T12:55:05.738Z,49.10
2019-03-25T12:57:34.391Z,49.30
2019-03-25T13:00:03.609Z,48.10
2019-03-25T13:02:32.317Z,48.30
2019-03-25T13:05:01.026Z,48.00
2019-03-25T13:07:29.705Z,46.70
2019-03-25T13:09:58.395Z,44.90
2019-03-25T13:12:27.067Z,45.30
2019-03-25T13:14:55.793Z,45.40
2019-03-25T13:17:24.474Z,45.90
2019-03-25T13:19:53.161Z,46.30
2019-03-25T13:22:21.862Z,48.00
2019-03-25T13:24:51.107Z,48.70
2019-03-25T13:27:19.814Z,51.10
2019-03-25T13:29:52.783Z,51.50
2019-03-25T13:32:20.610Z,52.50
2019-03-25T13:34:49.285Z,54.00
2019-03-25T13:37:18.017Z,54.50
2019-03-25T13:39:46.759Z,54.50
2019-03-25T13:42:15.484Z,54.80
2019-03-25T13:44:44.159Z,54.40
2019-03-25T13:47:12.856Z,54.50
2019-03-25T13:49:41.790Z,54.00
2019-03-25T13:52:10.548Z,53.80
2019-03-25T13:54:39.250Z,53.80
2019-03-25T13:57:07.991Z,54.10
2019-03-25T13:59:36.677Z,54.50
2019-03-25T14:02:05.358Z,54.80
2019-03-25T14:04:34.159Z,54.60
2019-03-25T14:07:03.971Z,54.90
2019-03-25T14:09:33.369Z,55.00
2019-03-25T14:12:02.067Z,55.10
2019-03-25T14:14:30.741Z,54.70
2019-03-25T14:16:59.431Z,54.70
2019-03-25T14:19:29.315Z,54.30
2019-03-25T14:21:58.400Z,54.30
2019-03-25T14:24:27.129Z,54.00
2019-03-25T14:26:55.914Z,53.40
2019-03-25T14:29:24.660Z,53.30
2019-03-25T14:31:53.419Z,52.70
2019-03-25T14:34:22.099Z,52.70
2019-03-25T14:36:50.797Z,52.10
2019-03-25T14:39:19.463Z,51.70
2019-03-25T14:41:48.385Z,51.80
2019-03-25T14:44:17.066Z,51.30
2019-03-25T14:46:45.763Z,51.80
2019-03-25T14:49:14.478Z,51.00
2019-03-25T14:51:43.130Z,50.70
2019-03-25T14:54:12.078Z,50.80
2019-03-25T14:56:40.762Z,51.10
2019-03-25T14:59:09.424Z,52.30
2019-03-25T15:01:38.261Z,53.70
2019-03-25T15:04:06.932Z,55.10
2019-03-25T15:06:35.642Z,55.60
2019-03-25T15:09:06.599Z,56.40
2019-03-25T15:11:35.293Z,56.30
2019-03-25T15:14:04.002Z,57.10
2019-03-25T15:16:32.763Z,57.30
2019-03-25T15:19:01.520Z,57.50
2019-03-25T15:21:30.289Z,57.60
2019-03-25T15:23:59.077Z,58.40
2019-03-25T15:26:27.952Z,57.90
2019-03-25T15:28:56.859Z,57.20
2019-03-25T15:31:25.580Z,58.00
2019-03-25T15:33:54.280Z,57.60
2019-03-25T15:36:22.955Z,57.60
2019-03-25T15:38:51.669Z,57.70
2019-03-25T15:41:20.365Z,57.20
2019-03-25T15:43:49.136Z,57.50
2019-03-25T15:46:17.799Z,57.50
2019-03-25T15:48:46.537Z,57.30
2019-03-25T15:51:15.355Z,56.30
2019-03-25T15:53:44.171Z,56.80
2019-03-25T15:56:12.874Z,57.40
2019-03-25T15:58:41.835Z,57.40
2019-03-25T16:01:10.722Z,56.40
2019-03-25T16:03:39.460Z,57.10
2019-03-25T16:06:08.186Z,57.40
2019-03-25T16:08:36.901Z,57.20
2019-03-25T16:11:05.745Z,57.20
2019-03-25T16:13:34.456Z,56.60
2019-03-25T16:16:03.122Z,56.50
2019-03-25T16:18:34.497Z,56.90
2019-03-25T16:21:03.183Z,56.40
2019-03-25T16:23:31.882Z,56.30
2019-03-25T16:26:00.556Z,55.80
2019-03-25T16:28:29.306Z,54.70
2019-03-25T16:30:59.196Z,55.20
2019-03-25T16:33:28.113Z,55.80
2019-03-25T16:35:56.832Z,56.20
2019-03-25T16:38:25.692Z,56.90
2019-03-25T16:40:54.644Z,56.60
2019-03-25T16:43:23.356Z,56.20
2019-03-25T16:45:52.997Z,56.40
2019-03-25T16:48:21.831Z,56.20
2019-03-25T16:50:50.571Z,56.00
2019-03-25T16:53:19.441Z,55.70
2019-03-25T16:55:48.185Z,55.40
2019-03-25T16:58:18.446Z,55.30
2019-03-25T17:00:47.164Z,55.30
2019-03-25T17:03:15.984Z,55.20
2019-03-25T17:05:44.721Z,55.10
2019-03-25T17:08:13.433Z,55.40
2019-03-25T17:10:42.269Z,54.80
2019-03-25T17:13:10.936Z,54.10
2019-03-25T17:15:39.690Z,54.40
2019-03-25T17:18:08.347Z,53.90
2019-03-25T17:20:38.595Z,53.30
2019-03-25T17:23:07.306Z,53.00
2019-03-25T17:25:36.347Z,52.60
2019-03-25T17:28:05.155Z,53.10
2019-03-25T17:30:33.833Z,53.10
2019-03-25T17:33:02.653Z,53.20
2019-03-25T17:35:31.351Z,52.30
2019-03-25T17:38:00.041Z,52.00
2019-03-25T17:40:28.839Z,51.90
2019-03-25T17:42:57.767Z,52.90
2019-03-25T17:45:26.440Z,54.00
2019-03-25T17:47:55.138Z,54.40
2019-03-25T17:50:23.817Z,54.50
2019-03-25T17:52:52.554Z,54.30
2019-03-25T17:55:21.235Z,54.80
2019-03-25T17:57:49.969Z,53.80
2019-03-25T18:00:33.733Z,53.90
2019-03-25T18:03:10.742Z,53.80
2019-03-25T18:05:32.876Z,53.80
2019-03-25T18:08:01.932Z,54.00
2019-03-25T18:10:30.618Z,53.90
2019-03-25T18:12:59.359Z,53.90
2019-03-25T18:15:28.142Z,53.70
2019-03-25T18:17:56.877Z,54.10
2019-03-25T18:20:25.547Z,53.90
2019-03-25T18:22:54.210Z,54.20
2019-03-25T18:25:22.926Z,54.10
2019-03-25T18:27:51.766Z,54.30
2019-03-25T18:30:23.372Z,54.30
2019-03-25T18:32:52.171Z,54.20
2019-03-25T18:35:24.316Z,54.30
2019-03-25T18:37:53.048Z,54.50
2019-03-25T18:40:21.762Z,54.70
2019-03-25T18:42:50.511Z,54.80
2019-03-25T18:45:19.213Z,55.00
2019-03-25T18:47:48.208Z,55.10
2019-03-25T18:50:16.915Z,55.00
2019-03-25T18:52:45.666Z,55.20
2019-03-25T18:55:14.420Z,55.10
2019-03-25T18:57:43.101Z,55.20
2019-03-25T19:00:17.958Z,55.10
2019-03-25T19:02:46.697Z,55.00
2019-03-25T19:05:15.373Z,54.90
2019-03-25T19:07:46.102Z,55.00
2019-03-25T19:10:17.760Z,54.90
2019-03-25T19:12:46.517Z,54.80
2019-03-25T19:15:15.226Z,54.80
2019-03-25T19:17:44.238Z,54.90
2019-03-25T19:20:12.973Z,54.70
2019-03-25T19:22:41.981Z,54.80
2019-03-25T19:25:10.695Z,54.70
2019-03-25T19:27:39.533Z,54.80
2019-03-25T19:30:09.392Z,54.90
2019-03-25T19:32:38.143Z,54.80
2019-03-25T19:35:08.786Z,54.90
2019-03-25T19:37:37.970Z,54.80
2019-03-25T19:40:08.566Z,54.60
2019-03-25T19:42:37.311Z,54.50
2019-03-25T19:45:08.480Z,54.60
2019-03-25T19:47:37.251Z,54.70
2019-03-25T19:50:07.190Z,54.80
2019-03-25T19:52:35.952Z,54.60
2019-03-25T19:55:05.178Z,54.80
2019-03-25T19:57:33.986Z,54.60
2019-03-25T20:00:02.957Z,54.50
2019-03-25T20:02:31.724Z,54.50
2019-03-25T20:05:00.568Z,54.40
2019-03-25T20:07:29.729Z,54.20
2019-03-25T20:09:58.488Z,54.40
2019-03-25T20:12:27.213Z,54.70
2019-03-25T20:14:55.887Z,55.20
2019-03-25T20:17:24.625Z,54.40
2019-03-25T20:19:53.354Z,54.20
2019-03-25T20:22:22.156Z,54.40
2019-03-25T20:24:50.965Z,54.40
2019-03-25T20:27:19.725Z,54.20
2019-03-25T20:29:48.436Z,54.30
2019-03-25T20:32:30.954Z,53.80
2019-03-25T20:34:55.801Z,53.90
2019-03-25T20:37:27.850Z,53.90
2019-03-25T20:39:59.638Z,53.90
2019-03-25T20:42:30.183Z,53.80
2019-03-25T20:44:59.172Z,53.90
2019-03-25T20:47:31.255Z,54.20
2019-03-25T20:50:00.097Z,53.90
2019-03-25T20:52:30.532Z,54.30
2019-03-25T20:55:00.739Z,54.10
2019-03-25T20:57:29.508Z,54.00
2019-03-25T20:59:59.811Z,54.00
2019-03-25T21:02:28.571Z,53.80
2019-03-25T21:04:57.394Z,53.60
2019-03-25T21:07:26.180Z,53.40
2019-03-25T21:09:54.982Z,53.50
2019-03-25T21:12:23.872Z,53.30
2019-03-25T21:14:52.744Z,53.00
2019-03-25T21:17:21.497Z,52.70
2019-03-25T21:19:50.227Z,52.40
2019-03-25T21:22:18.987Z,51.60
2019-03-25T21:24:47.678Z,52.00
2019-03-25T21:27:16.433Z,51.80
2019-03-25T21:29:45.294Z,51.40
2019-03-25T21:32:14.167Z,51.30
2019-03-25T21:34:42.856Z,51.20
2019-03-25T21:37:11.671Z,51.00
2019-03-25T21:39:40.357Z,50.90
2019-03-25T21:42:09.054Z,51.00
2019-03-25T21:44:37.829Z,50.90
2019-03-25T21:47:06.808Z,51.20
2019-03-25T21:49:35.690Z,51.20
2019-03-25T21:52:04.481Z,51.50
2019-03-25T21:54:35.513Z,51.20
2019-03-25T21:57:06.036Z,51.10
2019-03-25T21:59:38.098Z,51.10
2019-03-25T22:02:08.902Z,50.90
2019-03-25T22:04:38.191Z,51.10
2019-03-25T22:07:10.159Z,51.00
2019-03-25T22:09:41.956Z,51.20
2019-03-25T22:12:11.320Z,51.40
2019-03-25T22:14:40.011Z,51.40
2019-03-25T22:17:08.725Z,51.30
2019-03-25T22:19:37.771Z,51.80
2019-03-25T22:22:08.092Z,51.60
2019-03-25T22:24:36.820Z,52.00
2019-03-25T22:27:05.478Z,51.70
2019-03-25T22:29:34.183Z,51.70
2019-03-25T22:32:04.187Z,51.80
2019-03-25T22:34:32.885Z,51.60
2019-03-25T22:37:01.648Z,51.90
2019-03-25T22:39:30.382Z,51.90
2019-03-25T22:41:59.204Z,51.70
2019-03-25T22:44:27.958Z,51.60
2019-03-25T22:46:56.626Z,51.80
2019-03-25T22:49:25.308Z,51.60
2019-03-25T22:51:54.191Z,51.80
2019-03-25T22:54:22.954Z,51.50
2019-03-25T22:56:51.749Z,51.80
2019-03-25T22:59:20.573Z,51.50
2019-03-25T23:01:49.545Z,51.90
2019-03-25T23:04:18.431Z,51.30
2019-03-25T23:06:47.195Z,51.30
2019-03-25T23:09:15.929Z,51.60
2019-03-25T23:11:44.660Z,51.50
2019-03-25T23:14:13.351Z,51.50
2019-03-25T23:16:42.057Z,51.40
2019-03-25T23:19:10.728Z,51.60
2019-03-25T23:21:39.425Z,51.70
2019-03-25T23:24:08.120Z,51.80
2019-03-25T23:26:36.841Z,52.10
2019-03-25T23:29:05.523Z,52.00
2019-03-25T23:31:34.257Z,52.10
2019-03-25T23:34:03.255Z,52.10
2019-03-25T23:36:31.927Z,52.00
2019-03-25T23:39:00.631Z,52.00
2019-03-25T23:41:29.346Z,52.10
2019-03-25T23:43:58.020Z,52.00
2019-03-25T23:46:26.695Z,52.40
2019-03-25T23:48:55.386Z,52.30
2019-03-25T23:51:24.254Z,52.50
2019-03-25T23:53:54.562Z,52.40
2019-03-25T23:56:23.424Z,52.70
2019-03-25T23:58:52.114Z,52.80
